Time;durP1;ratioP1;P1;durP2;ratioP2;P2;SDS_P1;SDS_P2;PMS_P1;PMS_P2;Temp;Humidity;BMP_temperature;BMP_pressure;BME280_temperature;BME280_humidity;BME280_pressure;Samples;Min_cycle;Max_cycle;Signal;HPM_P1;HPM_P2
2022/11/09 00:02:07;;;;;;;6.63;1.80;;;12.90;99.70;;;;;;6247835;22;20095;-85
2022/11/09 00:04:32;;;;;;;3.92;1.60;;;12.90;99.80;;;;;;6277163;22;20038;-85
2022/11/09 00:06:58;;;;;;;5.68;1.67;;;12.90;99.80;;;;;;6276012;22;20090;-86
2022/11/09 00:09:23;;;;;;;6.07;1.73;;;12.90;99.80;;;;;;6275374;22;20086;-85
2022/11/09 00:11:49;;;;;;;6.65;1.67;;;12.90;99.80;;;;;;6276300;22;20011;-85
2022/11/09 00:14:16;;;;;;;6.60;1.83;;;12.90;99.90;;;;;;6276320;22;20451;-85
2022/11/09 00:16:41;;;;;;;5.82;1.70;;;12.80;99.90;;;;;;6248913;22;20026;-85
2022/11/09 00:19:07;;;;;;;7.20;2.00;;;12.90;99.90;;;;;;6249413;22;20016;-85
2022/11/09 00:21:33;;;;;;;7.20;1.85;;;12.80;99.90;;;;;;6248785;22;20019;-85
2022/11/09 00:23:58;;;;;;;8.98;2.50;;;12.90;99.90;;;;;;6275189;22;20089;-85
2022/11/09 00:26:25;;;;;;;4.22;1.63;;;12.80;99.90;;;;;;6249806;22;20008;-86
2022/11/09 00:28:50;;;;;;;4.90;1.70;;;12.80;99.90;;;;;;6249360;22;20481;-86
2022/11/09 00:31:19;;;;;;;8.38;2.28;;;12.80;99.90;;;;;;6275657;22;20023;-85
2022/11/09 00:33:54;;;;;;;10.85;2.10;;;12.80;99.90;;;;;;6249289;22;20011;-86
2022/11/09 00:36:22;;;;;;;8.85;2.20;;;12.80;99.90;;;;;;6276369;22;20070;-85
2022/11/09 00:38:53;;;;;;;8.55;1.95;;;12.80;99.90;;;;;;6249155;22;20056;-85
2022/11/09 00:41:19;;;;;;;6.07;2.30;;;12.80;99.90;;;;;;6251427;22;20019;-86
2022/11/09 00:43:45;;;;;;;8.13;1.92;;;12.80;99.90;;;;;;6276806;22;20340;-85
2022/11/09 00:46:12;;;;;;;8.43;2.15;;;12.80;99.90;;;;;;6251815;22;20019;-85
2022/11/09 00:48:37;;;;;;;9.57;1.95;;;12.80;99.90;;;;;;6251282;22;20022;-85
2022/11/09 00:51:04;;;;;;;7.57;2.00;;;12.80;99.90;;;;;;6277512;22;20382;-86
2022/11/09 00:53:30;;;;;;;8.57;2.28;;;12.80;99.90;;;;;;6251302;22;20016;-86
2022/11/09 00:55:59;;;;;;;6.75;1.98;;;12.80;99.90;;;;;;6277712;22;20019;-85
2022/11/09 00:58:27;;;;;;;7.68;2.33;;;12.80;99.90;;;;;;6277201;22;20066;-86
2022/11/09 01:00:54;;;;;;;6.70;1.80;;;12.80;99.90;;;;;;6278062;22;20012;-86
2022/11/09 01:03:21;;;;;;;12.10;2.28;;;12.80;99.90;;;;;;6278405;22;20094;-87
2022/11/09 01:05:47;;;;;;;10.20;2.08;;;12.80;99.90;;;;;;6249857;22;20347;-86
2022/11/09 01:08:13;;;;;;;6.80;2.00;;;12.80;99.90;;;;;;6278497;22;20015;-86
2022/11/09 01:10:43;;;;;;;8.32;2.35;;;12.80;99.90;;;;;;6278181;22;20332;-86
2022/11/09 01:13:10;;;;;;;10.93;2.20;;;12.80;99.90;;;;;;6277061;22;20015;-86
2022/11/09 01:15:47;;;;;;;9.77;2.15;;;12.80;99.90;;;;;;6250743;22;20066;-87
2022/11/09 01:18:14;;;;;;;8.10;1.92;;;12.80;99.90;;;;;;6277996;22;20007;-86
2022/11/09 01:20:45;;;;;;;7.70;2.00;;;12.80;99.90;;;;;;6277659;22;20024;-86
2022/11/09 01:23:13;;;;;;;10.10;2.03;;;12.80;99.90;;;;;;6251295;22;20091;-86
2022/11/09 01:25:39;;;;;;;8.55;2.20;;;12.80;99.90;;;;;;6250549;22;20392;-86
2022/11/09 01:28:06;;;;;;;7.00;2.20;;;12.80;99.90;;;;;;6249812;22;20030;-87
2022/11/09 01:30:37;;;;;;;8.52;2.30;;;12.80;99.90;;;;;;6250857;22;20463;-87
2022/11/09 01:33:04;;;;;;;10.32;2.30;;;12.80;99.90;;;;;;6249366;22;20027;-86
2022/11/09 01:35:33;;;;;;;11.77;2.10;;;12.80;99.90;;;;;;6251067;22;20061;-86
2022/11/09 01:37:58;;;;;;;8.85;2.03;;;12.80;99.90;;;;;;6277139;22;20022;-85
2022/11/09 01:40:25;;;;;;;8.45;2.20;;;12.80;99.90;;;;;;6276517;22;20086;-86
2022/11/09 01:42:51;;;;;;;6.97;2.10;;;12.80;99.90;;;;;;6250590;22;20170;-86
2022/11/09 01:45:16;;;;;;;8.68;1.88;;;12.80;99.90;;;;;;6278423;22;20016;-86
2022/11/09 01:47:48;;;;;;;9.82;2.30;;;12.80;99.80;;;;;;6250299;22;20087;-86
2022/11/09 01:50:18;;;;;;;9.13;2.10;;;12.80;99.80;;;;;;6250260;22;20026;-86
2022/11/09 01:52:47;;;;;;;8.27;2.10;;;12.80;99.80;;;;;;6277724;22;20012;-86
2022/11/09 01:55:17;;;;;;;8.02;1.83;;;12.80;99.80;;;;;;6249787;22;20043;-87
2022/11/09 01:57:57;;;;;;;10.32;2.30;;;12.80;99.80;;;;;;6250161;22;20012;-86
2022/11/09 02:00:23;;;;;;;8.32;2.03;;;12.80;99.80;;;;;;6277077;22;20463;-86
2022/11/09 02:02:57;;;;;;;11.65;2.10;;;12.80;99.80;;;;;;6249561;22;20016;-86
2022/11/09 02:05:29;;;;;;;9.35;2.22;;;12.80;99.80;;;;;;6250413;22;20011;-86
2022/11/09 02:07:56;;;;;;;8.80;2.08;;;12.80;99.80;;;;;;6276672;22;20039;-86
2022/11/09 02:10:26;;;;;;;12.45;2.30;;;12.80;99.80;;;;;;6276646;22;20373;-86
2022/11/09 02:12:53;;;;;;;8.98;2.28;;;12.80;99.80;;;;;;6250225;22;20077;-87
2022/11/09 02:15:20;;;;;;;8.45;1.95;;;12.80;99.80;;;;;;6249895;22;20387;-86
2022/11/09 02:17:51;;;;;;;7.60;2.15;;;12.80;99.80;;;;;;6250348;22;20019;-86
2022/11/09 02:20:17;;;;;;;10.77;2.17;;;12.70;99.80;;;;;;6277814;22;20026;-86
2022/11/09 02:22:43;;;;;;;6.80;1.92;;;12.80;99.80;;;;;;6248774;22;20439;-87
2022/11/09 02:25:10;;;;;;;8.13;1.80;;;12.80;99.80;;;;;;6277606;22;20026;-86
2022/11/09 02:27:37;;;;;;;10.48;2.00;;;12.70;99.80;;;;;;6250560;22;20094;-86
2022/11/09 02:30:04;;;;;;;10.55;2.30;;;12.70;99.80;;;;;;6275973;22;20424;-86
2022/11/09 02:32:30;;;;;;;7.93;1.95;;;12.70;99.80;;;;;;6249966;22;20011;-86
2022/11/09 02:34:56;;;;;;;11.50;2.13;;;12.70;99.80;;;;;;6277040;22;20061;-86
2022/11/09 02:37:27;;;;;;;7.45;2.15;;;12.70;99.80;;;;;;6249194;22;20015;-86
2022/11/09 02:39:56;;;;;;;9.98;2.05;;;12.70;99.80;;;;;;6248790;22;20034;-86
2022/11/09 02:42:22;;;;;;;6.95;1.95;;;12.70;99.80;;;;;;6249694;22;20510;-87
2022/11/09 02:44:55;;;;;;;9.65;1.80;;;12.70;99.80;;;;;;6275653;22;20076;-87
2022/11/09 02:47:21;;;;;;;10.20;2.08;;;12.70;99.80;;;;;;6277329;22;20432;-87
2022/11/09 02:49:46;;;;;;;14.10;2.00;;;12.70;99.70;;;;;;6277028;22;20030;-87
2022/11/09 02:52:12;;;;;;;9.45;2.10;;;12.60;99.70;;;;;;6277099;22;20008;-87
2022/11/09 02:54:38;;;;;;;11.70;2.53;;;12.60;99.70;;;;;;6250049;22;20019;-87
2022/11/09 02:57:03;;;;;;;9.13;1.92;;;12.60;99.70;;;;;;6249578;22;20020;-85
2022/11/09 02:59:29;;;;;;;9.80;2.42;;;12.60;99.70;;;;;;6276993;22;20393;-87
2022/11/09 03:01:54;;;;;;;9.85;1.73;;;12.60;99.70;;;;;;6249730;22;20020;-86
2022/11/09 03:04:20;;;;;;;10.25;2.42;;;12.60;99.70;;;;;;6276169;22;20016;-86
2022/11/09 03:06:46;;;;;;;9.13;1.80;;;12.60;99.70;;;;;;6248231;22;20074;-85
2022/11/09 03:09:12;;;;;;;8.18;2.00;;;12.60;99.70;;;;;;6275580;22;20681;-86
2022/11/09 03:11:39;;;;;;;9.63;2.13;;;12.60;99.70;;;;;;6248031;22;20895;-86
2022/11/09 03:14:05;;;;;;;13.73;2.35;;;12.50;99.70;;;;;;6276736;22;20019;-86
2022/11/09 03:16:31;;;;;;;9.43;2.33;;;12.60;99.70;;;;;;6276940;22;20332;-86
2022/11/09 03:18:57;;;;;;;7.43;2.15;;;12.50;99.70;;;;;;6248166;22;20020;-87
2022/11/09 03:21:23;;;;;;;9.15;2.05;;;12.50;99.70;;;;;;6276750;22;20063;-86
2022/11/09 03:23:49;;;;;;;10.88;1.98;;;12.50;99.70;;;;;;6249052;22;20016;-86
2022/11/09 03:26:15;;;;;;;6.80;1.77;;;12.50;99.70;;;;;;6248700;22;20019;-87
2022/11/09 03:28:41;;;;;;;11.25;1.90;;;12.50;99.70;;;;;;6249602;22;20456;-87
2022/11/09 03:31:07;;;;;;;9.90;1.77;;;12.40;99.70;;;;;;6249040;22;20451;-87
2022/11/09 03:33:34;;;;;;;9.95;1.98;;;12.40;99.70;;;;;;6248329;22;20016;-87
2022/11/09 03:36:00;;;;;;;9.25;2.05;;;12.40;99.70;;;;;;6249327;22;20019;-87
2022/11/09 03:38:25;;;;;;;11.25;2.10;;;12.40;99.60;;;;;;6276142;22;20089;-87
2022/11/09 03:40:51;;;;;;;10.02;1.85;;;12.50;99.60;;;;;;6247799;22;20020;-87
2022/11/09 03:43:17;;;;;;;10.68;2.10;;;12.40;99.60;;;;;;6248979;22;20444;-86
2022/11/09 03:45:42;;;;;;;10.80;1.85;;;12.40;99.60;;;;;;6276651;22;20035;-87
2022/11/09 03:48:08;;;;;;;11.00;2.15;;;12.40;99.50;;;;;;6275979;22;20019;-86
2022/11/09 03:50:34;;;;;;;10.20;2.08;;;12.40;99.50;;;;;;6249619;22;20094;-87
2022/11/09 03:53:01;;;;;;;9.60;1.98;;;12.40;99.50;;;;;;6276449;22;20102;-87
2022/11/09 03:55:27;;;;;;;9.77;1.80;;;12.40;99.60;;;;;;6248800;22;20015;-87
2022/11/09 03:57:53;;;;;;;8.50;2.15;;;12.40;99.60;;;;;;6276945;22;20035;-87
2022/11/09 04:00:21;;;;;;;9.38;2.08;;;12.40;99.60;;;;;;6249254;22;20340;-86
2022/11/09 04:02:47;;;;;;;11.38;2.10;;;12.30;99.60;;;;;;6247900;22;20016;-87
2022/11/09 04:05:14;;;;;;;10.57;1.88;;;12.30;99.60;;;;;;6250032;22;20072;-86
2022/11/09 04:07:44;;;;;;;11.68;2.25;;;12.40;99.60;;;;;;6275068;22;20016;-87
2022/11/09 04:10:10;;;;;;;9.13;2.05;;;12.30;99.60;;;;;;6276590;22;20024;-86
2022/11/09 04:12:36;;;;;;;10.85;2.05;;;12.30;99.70;;;;;;6248748;22;20015;-87
2022/11/09 04:15:01;;;;;;;10.07;1.75;;;12.30;99.70;;;;;;6247889;22;20065;-87
2022/11/09 04:17:27;;;;;;;13.23;2.17;;;12.20;99.70;;;;;;6249170;22;20022;-87
2022/11/09 04:19:52;;;;;;;10.85;2.28;;;12.30;99.80;;;;;;6248971;22;20023;-87
2022/11/09 04:22:18;;;;;;;10.70;2.17;;;12.30;99.80;;;;;;6248063;22;20011;-86
2022/11/09 04:24:43;;;;;;;9.05;1.90;;;12.20;99.90;;;;;;6275622;22;20027;-87
2022/11/09 04:27:09;;;;;;;9.85;2.10;;;12.20;99.90;;;;;;6276077;22;20505;-87
2022/11/09 04:29:34;;;;;;;11.60;1.90;;;12.20;99.90;;;;;;6248485;22;20341;-87
2022/11/09 04:32:00;;;;;;;9.50;2.20;;;12.20;99.90;;;;;;6249281;22;20016;-86
2022/11/09 04:34:25;;;;;;;11.10;2.10;;;12.20;99.90;;;;;;6249262;22;20016;-87
2022/11/09 04:36:51;;;;;;;11.88;2.28;;;12.20;99.90;;;;;;6248117;22;20023;-86
2022/11/09 04:39:17;;;;;;;13.65;2.10;;;12.20;99.90;;;;;;6276311;22;20024;-86
2022/11/09 04:41:42;;;;;;;9.57;2.03;;;12.20;99.90;;;;;;6249067;22;20023;-86
2022/11/09 04:44:08;;;;;;;9.05;2.13;;;12.20;99.90;;;;;;6275603;22;20020;-86
2022/11/09 04:46:33;;;;;;;10.30;2.03;;;12.20;99.90;;;;;;6250078;22;20023;-87
2022/11/09 04:48:59;;;;;;;9.45;1.90;;;12.10;99.90;;;;;;6248853;22;20011;-86
2022/11/09 04:51:25;;;;;;;13.57;2.22;;;12.10;99.90;;;;;;6248891;22;20403;-86
2022/11/09 04:53:51;;;;;;;11.18;2.55;;;12.10;99.90;;;;;;6275036;22;20028;-88
2022/11/09 04:56:17;;;;;;;12.45;2.40;;;12.20;99.90;;;;;;6276186;22;20012;-87
2022/11/09 04:58:42;;;;;;;10.75;2.20;;;12.10;99.90;;;;;;6275913;22;20134;-88
2022/11/09 05:01:13;;;;;;;9.30;2.10;;;12.10;99.90;;;;;;6249268;22;20023;-87
2022/11/09 05:03:39;;;;;;;9.38;1.95;;;12.10;99.90;;;;;;6248402;22;20008;-88
2022/11/09 05:08:50;;;;;;;9.90;1.90;;;12.20;99.90;;;;;;6276750;22;20023;-94
2022/11/09 05:11:16;;;;;;;9.73;1.90;;;12.20;99.90;;;;;;6275169;22;20011;-91
2022/11/09 05:13:41;;;;;;;9.95;2.33;;;12.20;99.90;;;;;;6248846;22;20069;-89
2022/11/09 05:16:07;;;;;;;7.07;1.85;;;12.20;99.90;;;;;;6248603;22;20093;-89
2022/11/09 05:18:33;;;;;;;9.25;2.00;;;12.20;99.90;;;;;;6247858;22;20016;-88
2022/11/09 05:20:59;;;;;;;10.52;2.08;;;12.20;99.90;;;;;;6275514;22;20015;-89
2022/11/09 05:26:09;;;;;;;10.27;1.95;;;12.30;99.90;;;;;;6277592;22;20024;-89
2022/11/09 05:28:35;;;;;;;10.27;2.00;;;12.30;99.90;;;;;;6250678;22;20020;-88
2022/11/09 05:31:00;;;;;;;12.00;2.30;;;12.30;99.90;;;;;;6249611;22;20384;-85
2022/11/09 05:33:26;;;;;;;10.52;2.50;;;12.30;99.90;;;;;;6276660;22;20034;-87
2022/11/09 05:35:56;;;;;;;8.20;1.95;;;12.30;99.90;;;;;;6277986;22;20066;-87
2022/11/09 05:38:22;;;;;;;8.93;2.13;;;12.30;99.90;;;;;;6278070;22;20091;-88
2022/11/09 05:40:49;;;;;;;10.75;2.17;;;12.30;99.90;;;;;;6250076;22;20020;-93
2022/11/09 05:43:15;;;;;;;10.23;2.20;;;12.30;99.90;;;;;;6250654;22;20383;-89
2022/11/09 05:45:41;;;;;;;9.85;2.20;;;12.30;99.90;;;;;;6250975;22;20439;-81
2022/11/09 05:48:07;;;;;;;9.40;2.20;;;12.30;99.90;;;;;;6276869;22;20016;-81
2022/11/09 05:50:33;;;;;;;13.25;2.20;;;12.30;99.90;;;;;;6278343;22;20065;-81
2022/11/09 05:53:00;;;;;;;9.60;2.13;;;12.30;99.90;;;;;;6250398;22;20008;-81
2022/11/09 05:55:25;;;;;;;10.50;2.13;;;12.30;99.90;;;;;;6276977;22;20383;-81
2022/11/09 05:57:51;;;;;;;11.35;2.65;;;12.30;99.90;;;;;;6250362;22;20024;-81
2022/11/09 06:00:17;;;;;;;8.95;1.92;;;12.30;99.90;;;;;;6249547;22;20039;-81
2022/11/09 06:02:42;;;;;;;11.07;2.10;;;12.20;99.90;;;;;;6277494;22;20099;-80
2022/11/09 06:05:08;;;;;;;12.35;2.10;;;12.20;99.90;;;;;;6277783;22;20098;-81
2022/11/09 06:07:34;;;;;;;10.70;2.13;;;12.20;99.90;;;;;;6249476;22;20023;-81
2022/11/09 06:10:00;;;;;;;12.90;2.63;;;12.20;99.90;;;;;;6250522;22;20098;-81
2022/11/09 06:12:26;;;;;;;10.18;2.08;;;12.20;99.90;;;;;;6250188;22;20018;-80
2022/11/09 06:14:51;;;;;;;10.05;2.00;;;12.10;99.90;;;;;;6249667;22;20070;-81
2022/11/09 06:17:17;;;;;;;12.60;1.85;;;12.10;99.90;;;;;;6277894;22;20390;-81
2022/11/09 06:19:42;;;;;;;6.45;1.60;;;12.10;99.90;;;;;;6249932;22;20471;-81
2022/11/09 06:22:08;;;;;;;10.13;2.13;;;12.10;99.90;;;;;;6277074;22;20020;-81
2022/11/09 06:24:34;;;;;;;11.10;2.22;;;12.10;99.90;;;;;;6278008;22;20008;-81
2022/11/09 06:26:59;;;;;;;10.68;2.20;;;12.00;99.90;;;;;;6277103;22;20015;-81
2022/11/09 06:29:25;;;;;;;10.50;2.28;;;12.10;99.90;;;;;;6277547;22;20043;-81
2022/11/09 06:31:51;;;;;;;9.25;1.67;;;12.00;99.90;;;;;;6249974;22;20012;-81
2022/11/09 06:34:16;;;;;;;15.52;2.33;;;12.00;99.90;;;;;;6277410;22;20066;-81
2022/11/09 06:36:43;;;;;;;12.75;2.10;;;12.00;99.90;;;;;;6249440;22;20020;-81
2022/11/09 06:39:08;;;;;;;10.88;2.10;;;12.00;99.90;;;;;;6277467;22;20019;-81
2022/11/09 06:41:34;;;;;;;10.48;2.00;;;12.00;99.90;;;;;;6250375;22;20016;-81
2022/11/09 06:44:00;;;;;;;11.65;2.10;;;12.00;99.90;;;;;;6276828;22;20093;-81
2022/11/09 06:46:25;;;;;;;8.27;1.90;;;12.00;99.90;;;;;;6277637;22;20015;-81
2022/11/09 06:48:51;;;;;;;10.40;1.98;;;12.00;99.90;;;;;;6249662;22;20019;-81
2022/11/09 06:51:17;;;;;;;9.38;1.80;;;12.00;99.90;;;;;;6276818;22;20008;-81
2022/11/09 06:53:43;;;;;;;11.68;2.03;;;12.00;99.90;;;;;;6277522;22;20054;-81
2022/11/09 06:56:09;;;;;;;11.40;1.98;;;12.00;99.90;;;;;;6277941;22;20020;-81
2022/11/09 06:58:35;;;;;;;8.48;1.77;;;12.00;99.90;;;;;;6276493;22;20004;-81
2022/11/09 07:01:11;;;;;;;11.13;1.90;;;12.00;99.90;;;;;;6276900;22;20012;-81
2022/11/09 07:03:38;;;;;;;10.80;2.05;;;12.00;99.90;;;;;;6276812;22;20031;-81
2022/11/09 07:06:06;;;;;;;9.00;2.00;;;12.00;99.90;;;;;;6277223;22;20095;-81
2022/11/09 07:08:33;;;;;;;10.68;2.05;;;12.00;99.90;;;;;;6277398;22;20038;-81
2022/11/09 07:11:04;;;;;;;11.65;2.15;;;12.00;99.90;;;;;;6275994;22;20095;-81
2022/11/09 07:13:30;;;;;;;12.18;2.00;;;12.00;99.90;;;;;;6277127;22;20018;-81
2022/11/09 07:15:55;;;;;;;9.45;1.88;;;12.00;99.90;;;;;;6278522;22;20039;-81
2022/11/09 07:18:21;;;;;;;11.32;1.88;;;12.00;99.90;;;;;;6250084;22;20028;-81
2022/11/09 07:20:47;;;;;;;10.00;1.80;;;11.90;99.90;;;;;;6249975;22;20146;-81
2022/11/09 07:23:12;;;;;;;9.60;1.65;;;11.90;99.90;;;;;;6250974;22;20022;-82
2022/11/09 07:25:38;;;;;;;13.98;1.92;;;11.90;99.90;;;;;;6277164;22;20077;-81
2022/11/09 07:28:06;;;;;;;13.48;2.22;;;11.90;99.90;;;;;;6276857;22;20011;-82
2022/11/09 07:30:32;;;;;;;10.50;1.80;;;11.90;99.90;;;;;;6277679;22;20020;-80
2022/11/09 07:32:58;;;;;;;9.40;1.75;;;11.90;99.90;;;;;;6276601;22;20014;-80
2022/11/09 07:35:25;;;;;;;12.65;1.88;;;12.00;99.90;;;;;;6250052;22;20325;-80
2022/11/09 07:37:51;;;;;;;13.27;2.22;;;11.90;99.90;;;;;;6249566;22;20019;-81
2022/11/09 07:40:17;;;;;;;10.02;1.63;;;11.90;99.90;;;;;;6276309;22;20015;-80
2022/11/09 07:42:43;;;;;;;11.02;2.00;;;11.90;99.90;;;;;;6249647;22;20018;-80
2022/11/09 07:45:09;;;;;;;11.30;2.15;;;11.90;99.90;;;;;;6275946;22;20320;-81
2022/11/09 07:47:35;;;;;;;11.05;2.22;;;11.90;99.90;;;;;;6276133;22;20041;-81
2022/11/09 07:50:00;;;;;;;10.77;2.40;;;11.90;99.90;;;;;;6277079;22;20016;-81
2022/11/09 07:52:26;;;;;;;11.93;2.20;;;11.90;99.90;;;;;;6276547;22;20012;-82
2022/11/09 07:54:52;;;;;;;15.88;2.33;;;11.90;99.90;;;;;;6249565;22;20019;-82
2022/11/09 07:57:17;;;;;;;13.68;2.38;;;11.90;99.90;;;;;;6277199;22;20008;-82
2022/11/09 07:59:43;;;;;;;10.23;2.13;;;11.90;99.90;;;;;;6276001;22;20015;-81
2022/11/09 08:02:09;;;;;;;13.32;2.20;;;11.90;99.90;;;;;;6251297;22;20015;-81
2022/11/09 08:04:35;;;;;;;12.30;2.17;;;11.90;99.90;;;;;;6277437;22;20030;-81
2022/11/09 08:07:00;;;;;;;10.48;2.15;;;11.90;99.90;;;;;;6249539;22;20038;-81
2022/11/09 08:09:27;;;;;;;12.13;2.35;;;11.90;99.90;;;;;;6277787;22;20031;-81
2022/11/09 08:11:53;;;;;;;16.05;2.30;;;11.90;99.90;;;;;;6277159;22;20521;-80
2022/11/09 08:14:18;;;;;;;12.68;2.25;;;11.90;99.90;;;;;;6250829;22;20015;-81
2022/11/09 08:16:44;;;;;;;14.23;2.67;;;11.90;99.90;;;;;;6250663;22;20339;-82
2022/11/09 08:19:10;;;;;;;13.52;2.30;;;12.00;99.90;;;;;;6278849;22;20090;-82
2022/11/09 08:21:36;;;;;;;12.43;2.25;;;11.90;99.90;;;;;;6250920;22;20015;-82
2022/11/09 08:24:04;;;;;;;13.05;2.10;;;12.00;99.90;;;;;;6251259;22;20114;-82
2022/11/09 08:26:30;;;;;;;16.08;2.28;;;12.00;99.90;;;;;;6278729;22;20019;-81
2022/11/09 08:28:56;;;;;;;14.50;2.33;;;12.00;99.90;;;;;;6250715;22;20012;-82
2022/11/09 08:31:22;;;;;;;12.27;2.25;;;12.10;99.90;;;;;;6251212;22;20324;-81
2022/11/09 08:33:47;;;;;;;15.63;2.13;;;12.00;99.90;;;;;;6278340;22;20042;-82
2022/11/09 08:36:16;;;;;;;10.70;2.10;;;12.10;99.90;;;;;;6277751;22;20068;-81
2022/11/09 08:38:43;;;;;;;13.00;2.13;;;12.10;99.90;;;;;;6249860;22;20012;-82
2022/11/09 08:41:09;;;;;;;14.50;2.30;;;12.10;99.90;;;;;;6277813;22;20019;-81
2022/11/09 08:43:35;;;;;;;12.00;2.55;;;12.20;99.90;;;;;;6277050;22;20109;-81
2022/11/09 08:46:01;;;;;;;14.85;2.92;;;12.20;99.90;;;;;;6250215;22;20016;-81
2022/11/09 08:48:26;;;;;;;15.40;2.47;;;12.20;99.90;;;;;;6250004;22;20011;-80
2022/11/09 08:50:55;;;;;;;15.43;2.28;;;12.30;99.90;;;;;;6249222;22;20020;-81
2022/11/09 08:53:22;;;;;;;18.63;2.78;;;12.30;99.90;;;;;;6251085;22;20099;-81
2022/11/09 08:55:48;;;;;;;10.20;2.50;;;12.30;99.90;;;;;;6276679;22;20050;-81
2022/11/09 08:58:14;;;;;;;10.88;2.15;;;12.40;99.90;;;;;;6276784;22;20312;-81
2022/11/09 09:00:40;;;;;;;10.25;2.17;;;12.40;99.90;;;;;;6251691;22;20039;-81
2022/11/09 09:03:06;;;;;;;15.80;2.83;;;12.40;99.90;;;;;;6278142;22;20023;-82
2022/11/09 09:05:35;;;;;;;11.48;2.45;;;12.50;99.90;;;;;;6279427;22;20351;-81
2022/11/09 09:08:02;;;;;;;17.90;2.83;;;12.50;99.90;;;;;;6251897;22;20016;-82
2022/11/09 09:10:28;;;;;;;13.23;2.63;;;12.50;99.90;;;;;;6277998;22;20027;-82
2022/11/09 09:12:54;;;;;;;14.20;3.00;;;12.50;99.90;;;;;;6278205;22;20053;-81
2022/11/09 09:15:20;;;;;;;15.35;2.50;;;12.60;99.90;;;;;;6251593;22;20026;-82
2022/11/09 09:17:46;;;;;;;15.65;2.35;;;12.60;99.90;;;;;;6277601;22;20011;-82
2022/11/09 09:20:12;;;;;;;16.85;2.70;;;12.60;99.90;;;;;;6278540;22;20098;-82
2022/11/09 09:22:38;;;;;;;16.60;2.85;;;12.70;99.90;;;;;;6278364;22;20339;-82
2022/11/09 09:25:04;;;;;;;12.77;2.72;;;12.70;99.90;;;;;;6277451;22;20051;-82
2022/11/09 09:27:30;;;;;;;13.20;2.50;;;12.70;99.90;;;;;;6279057;22;20011;-82
2022/11/09 09:29:56;;;;;;;15.38;3.08;;;12.80;99.90;;;;;;6250493;22;20452;-82
2022/11/09 09:32:22;;;;;;;11.50;2.22;;;12.80;99.90;;;;;;6250854;22;20060;-82
2022/11/09 09:34:48;;;;;;;9.55;2.70;;;12.90;99.90;;;;;;6278408;22;20019;-84
2022/11/09 09:37:14;;;;;;;11.88;2.90;;;12.80;99.80;;;;;;6260019;22;20019;-82
2022/11/09 09:39:40;;;;;;;13.27;2.83;;;12.90;99.80;;;;;;6289785;22;20023;-81
2022/11/09 09:42:13;;;;;;;12.60;2.60;;;12.90;99.80;;;;;;6251086;22;20041;-81
2022/11/09 09:44:44;;;;;;;;;;;12.90;99.70;;;;;;6278756;22;20062;-83
2022/11/09 09:47:30;;;;;;;16.38;3.17;;;12.90;99.60;;;;;;6250143;22;19949;-89
2022/11/09 09:50:11;;;;;;;17.13;2.95;;;13.00;99.80;;;;;;6251339;22;20443;-94
2022/11/09 09:53:29;;;;;;;17.92;3.40;;;13.00;99.60;;;;;;6279604;22;20015;-94
2022/11/09 09:56:19;;;;;;;12.77;2.80;;;13.10;99.50;;;;;;6186473;23;20013;-93
2022/11/09 09:59:03;;;;;;;15.02;3.00;;;13.10;99.40;;;;;;6184550;23;20020;-87
2022/11/09 10:01:41;;;;;;;11.85;2.72;;;13.10;99.40;;;;;;6166010;23;20013;-94
2022/11/09 10:04:28;;;;;;;13.75;2.83;;;13.20;99.50;;;;;;6248109;23;20020;-94
2022/11/09 10:07:21;;;;;;;13.60;2.72;;;13.20;99.40;;;;;;6219394;23;20344;-84
2022/11/09 10:10:09;;;;;;;14.20;2.97;;;13.20;99.30;;;;;;6247119;23;20020;-84
2022/11/09 10:12:40;;;;;;;12.73;2.95;;;13.20;99.20;;;;;;6247217;23;20336;-86
2022/11/09 10:15:15;;;;;;;14.13;3.05;;;13.30;99.40;;;;;;6219974;23;20012;-85
2022/11/09 10:18:40;;;;;;;14.05;3.13;;;13.30;99.20;;;;;;6220653;23;20343;-85
2022/11/09 10:21:41;;;;;;;14.50;2.83;;;13.30;99.00;;;;;;6153008;23;20437;-85
2022/11/09 10:24:29;;;;;;;11.85;2.72;;;13.30;99.10;;;;;;6129272;23;20045;-85
2022/11/09 10:26:57;;;;;;;15.98;3.20;;;13.30;99.20;;;;;;6219102;23;20511;-85
2022/11/09 10:29:33;;;;;;;16.95;3.40;;;13.40;99.20;;;;;;6219699;23;20347;-85
2022/11/09 10:32:16;;;;;;;9.75;2.75;;;13.40;99.10;;;;;;6246801;23;20012;-85
2022/11/09 10:34:44;;;;;;;12.32;2.47;;;13.40;98.90;;;;;;6219420;23;20020;-84
2022/11/09 10:37:22;;;;;;;14.20;3.10;;;13.40;98.90;;;;;;6220386;23;20020;-85
2022/11/09 10:40:03;;;;;;;13.30;2.88;;;13.40;98.80;;;;;;6219897;23;20102;-85
2022/11/09 10:42:29;;;;;;;15.02;2.97;;;13.40;98.60;;;;;;6219439;23;20044;-83
2022/11/09 10:44:55;;;;;;;13.48;3.10;;;13.50;98.70;;;;;;6246810;23;20016;-83
2022/11/09 10:47:21;;;;;;;17.95;3.30;;;13.50;98.70;;;;;;6219871;23;20008;-84
2022/11/09 10:50:06;;;;;;;16.65;2.80;;;13.50;98.70;;;;;;6246148;23;20043;-84
2022/11/09 10:52:40;;;;;;;13.95;2.85;;;13.60;98.50;;;;;;6220116;23;20015;-84
2022/11/09 10:55:27;;;;;;;14.23;3.03;;;13.60;98.70;;;;;;6246634;23;20016;-83
2022/11/09 10:57:56;;;;;;;19.98;2.97;;;13.60;98.50;;;;;;6218242;23;20044;-83
2022/11/09 11:00:22;;;;;;;14.13;3.15;;;13.70;98.60;;;;;;6219316;23;20348;-83
2022/11/09 11:02:49;;;;;;;10.90;2.90;;;13.70;98.50;;;;;;6262119;22;20012;-83
2022/11/09 11:05:18;;;;;;;13.15;3.00;;;13.70;98.40;;;;;;6250890;22;20508;-83
2022/11/09 11:07:46;;;;;;;13.70;2.83;;;13.70;98.40;;;;;;6276775;22;20018;-82
2022/11/09 11:10:15;;;;;;;13.20;3.10;;;13.80;98.20;;;;;;6276597;22;20012;-83
2022/11/09 11:12:58;;;;;;;11.18;2.63;;;13.80;98.00;;;;;;6249951;22;20443;-83
2022/11/09 11:15:31;;;;;;;12.48;2.72;;;13.80;98.00;;;;;;6277259;22;20020;-82
2022/11/09 11:18:11;;;;;;;15.45;3.08;;;13.90;98.10;;;;;;6249908;22;20477;-83
2022/11/09 11:20:37;;;;;;;15.23;2.90;;;13.90;97.90;;;;;;6276523;22;20023;-82
2022/11/09 11:23:18;;;;;;;14.02;3.13;;;13.90;97.80;;;;;;6276318;22;20344;-82
2022/11/09 11:25:52;;;;;;;10.82;2.85;;;13.90;97.60;;;;;;6275851;22;20528;-83
2022/11/09 11:28:29;;;;;;;16.40;2.72;;;13.90;97.60;;;;;;6276959;22;20035;-83
2022/11/09 11:30:55;;;;;;;12.38;2.53;;;13.90;97.50;;;;;;6248237;22;20019;-82
2022/11/09 11:33:21;;;;;;;15.13;3.13;;;13.90;97.60;;;;;;6249063;22;20344;-83
2022/11/09 11:36:03;;;;;;;16.05;2.75;;;13.90;97.40;;;;;;6276231;22;20018;-83
2022/11/09 11:38:42;;;;;;;14.07;2.53;;;14.00;97.20;;;;;;6248519;22;20022;-82
2022/11/09 11:41:44;;;;;;;18.98;2.70;;;13.90;97.10;;;;;;6249307;22;20395;-83
2022/11/09 11:44:40;;;;;;;13.40;2.65;;;13.90;96.80;;;;;;6276890;22;20043;-82
2022/11/09 11:47:35;;;;;;;10.85;2.40;;;13.90;96.90;;;;;;6275755;22;20095;-82
2022/11/09 11:50:21;;;;;;;12.55;2.80;;;14.00;97.00;;;;;;6248728;22;20043;-83
2022/11/09 11:53:07;;;;;;;13.48;2.90;;;14.00;97.10;;;;;;6232070;22;20012;-83
2022/11/09 11:56:15;;;;;;;13.95;3.13;;;14.00;97.20;;;;;;6249518;22;20016;-83
2022/11/09 11:59:02;;;;;;;12.38;2.90;;;13.90;96.90;;;;;;6240575;22;20016;-82
2022/11/09 12:01:53;;;;;;;11.60;2.45;;;13.90;97.00;;;;;;6249411;22;20054;-82
2022/11/09 12:04:46;;;;;;;12.55;2.40;;;14.00;97.00;;;;;;6219110;23;20024;-82
2022/11/09 12:07:42;;;;;;;13.60;2.85;;;14.00;97.20;;;;;;6218243;23;20394;-82
2022/11/09 12:10:39;;;;;;;15.82;2.65;;;13.90;97.10;;;;;;6218604;23;20414;-83
2022/11/09 12:13:23;;;;;;;13.68;2.38;;;13.90;97.10;;;;;;6217281;23;20012;-83
2022/11/09 12:16:14;;;;;;;10.27;1.90;;;13.90;97.30;;;;;;6245373;23;20024;-83
2022/11/09 12:19:15;;;;;;;11.15;2.30;;;13.90;97.10;;;;;;6218119;23;20012;-83
2022/11/09 12:21:58;;;;;;;16.15;2.20;;;13.90;96.90;;;;;;6217441;23;20016;-83
2022/11/09 12:24:33;;;;;;;14.23;2.63;;;13.90;97.10;;;;;;6218964;23;20095;-83
2022/11/09 12:27:26;;;;;;;11.00;2.28;;;13.90;97.00;;;;;;6244548;23;20016;-83
2022/11/09 12:29:56;;;;;;;11.07;2.33;;;13.90;97.10;;;;;;6219511;23;20012;-82
2022/11/09 12:32:49;;;;;;;12.63;2.10;;;13.90;97.20;;;;;;6218367;23;20008;-82
2022/11/09 12:35:24;;;;;;;13.77;2.08;;;13.90;97.10;;;;;;6218191;23;20066;-82
2022/11/09 12:37:53;;;;;;;11.88;2.67;;;13.90;97.10;;;;;;6218633;23;20016;-83
2022/11/09 12:40:25;;;;;;;11.40;2.30;;;13.90;97.20;;;;;;6218846;23;20026;-82
2022/11/09 12:43:14;;;;;;;11.00;1.92;;;13.90;97.20;;;;;;6217444;23;20016;-82
2022/11/09 12:45:40;;;;;;;9.35;2.13;;;13.90;97.20;;;;;;6245836;23;20027;-81
2022/11/09 12:48:12;;;;;;;11.70;1.98;;;13.90;97.20;;;;;;6244441;23;20023;-82
2022/11/09 12:50:39;;;;;;;12.02;2.03;;;13.90;96.90;;;;;;6218807;23;20020;-82
2022/11/09 12:53:06;;;;;;;10.43;2.20;;;14.00;97.00;;;;;;6245335;23;20012;-82
2022/11/09 12:56:08;;;;;;;13.45;2.33;;;13.90;97.00;;;;;;6218193;23;20020;-82
2022/11/09 12:58:36;;;;;;;11.43;2.28;;;13.90;96.90;;;;;;6200156;23;20016;-81
2022/11/09 13:01:05;;;;;;;12.85;2.38;;;13.90;97.10;;;;;;6218661;23;20019;-82